sensor_id;sensor_type;location;lat;lon;timestamp;temperature;humidity
39875;DHT22;25547;52.530;13.194;2023-05-28T00:00:59;14.60;72.60
39875;DHT22;25547;52.530;13.194;2023-05-28T00:03:26;14.40;73.40
39875;DHT22;25547;52.530;13.194;2023-05-28T00:05:52;14.40;74.00
39875;DHT22;25547;52.530;13.194;2023-05-28T00:08:18;14.30;74.30
39875;DHT22;25547;52.530;13.194;2023-05-28T00:10:46;14.30;75.10
39875;DHT22;25547;52.530;13.194;2023-05-28T00:13:12;14.20;75.60
39875;DHT22;25547;52.530;13.194;2023-05-28T00:15:42;14.20;75.80
39875;DHT22;25547;52.530;13.194;2023-05-28T00:18:07;14.10;75.80
39875;DHT22;25547;52.530;13.194;2023-05-28T00:20:39;14.10;75.90
39875;DHT22;25547;52.530;13.194;2023-05-28T00:23:05;14.10;75.80
39875;DHT22;25547;52.530;13.194;2023-05-28T00:25:31;14.00;76.40
39875;DHT22;25547;52.530;13.194;2023-05-28T00:28:01;14.00;76.40
39875;DHT22;25547;52.530;13.194;2023-05-28T00:30:27;14.00;76.90
39875;DHT22;25547;52.530;13.194;2023-05-28T00:32:53;14.00;77.50
39875;DHT22;25547;52.530;13.194;2023-05-28T00:35:19;14.00;77.60
39875;DHT22;25547;52.530;13.194;2023-05-28T00:37:44;14.00;77.70
39875;DHT22;25547;52.530;13.194;2023-05-28T00:40:10;14.00;77.60
39875;DHT22;25547;52.530;13.194;2023-05-28T00:42:39;14.00;77.30
39875;DHT22;25547;52.530;13.194;2023-05-28T00:45:06;14.10;77.30
39875;DHT22;25547;52.530;13.194;2023-05-28T00:47:32;14.10;77.10
39875;DHT22;25547;52.530;13.194;2023-05-28T00:50:00;14.20;76.70
39875;DHT22;25547;52.530;13.194;2023-05-28T00:52:29;14.20;76.70
39875;DHT22;25547;52.530;13.194;2023-05-28T00:54:55;14.20;77.10
39875;DHT22;25547;52.530;13.194;2023-05-28T00:57:21;14.10;77.50
39875;DHT22;25547;52.530;13.194;2023-05-28T00:59:50;14.20;77.40
39875;DHT22;25547;52.530;13.194;2023-05-28T01:02:22;14.20;77.30
39875;DHT22;25547;52.530;13.194;2023-05-28T01:04:50;14.20;77.50
39875;DHT22;25547;52.530;13.194;2023-05-28T01:07:16;14.20;77.60
39875;DHT22;25547;52.530;13.194;2023-05-28T01:09:45;14.30;77.60
39875;DHT22;25547;52.530;13.194;2023-05-28T01:12:10;14.20;77.40
39875;DHT22;25547;52.530;13.194;2023-05-28T01:14:36;14.20;77.80
39875;DHT22;25547;52.530;13.194;2023-05-28T01:17:03;14.20;78.00
39875;DHT22;25547;52.530;13.194;2023-05-28T01:19:31;14.20;78.30
39875;DHT22;25547;52.530;13.194;2023-05-28T01:22:03;14.20;78.60
39875;DHT22;25547;52.530;13.194;2023-05-28T01:24:31;14.10;78.90
39875;DHT22;25547;52.530;13.194;2023-05-28T01:26:57;14.10;79.20
39875;DHT22;25547;52.530;13.194;2023-05-28T01:29:23;14.10;79.20
39875;DHT22;25547;52.530;13.194;2023-05-28T01:31:51;14.00;78.70
39875;DHT22;25547;52.530;13.194;2023-05-28T01:34:17;13.90;78.40
39875;DHT22;25547;52.530;13.194;2023-05-28T01:37:12;13.80;78.70
39875;DHT22;25547;52.530;13.194;2023-05-28T01:39:43;13.70;78.90
39875;DHT22;25547;52.530;13.194;2023-05-28T01:42:12;13.70;79.40
39875;DHT22;25547;52.530;13.194;2023-05-28T01:44:39;13.70;79.80
39875;DHT22;25547;52.530;13.194;2023-05-28T01:47:05;13.70;79.90
39875;DHT22;25547;52.530;13.194;2023-05-28T01:49:32;13.70;79.80
39875;DHT22;25547;52.530;13.194;2023-05-28T01:51:58;13.70;80.00
39875;DHT22;25547;52.530;13.194;2023-05-28T01:54:24;13.80;80.20
39875;DHT22;25547;52.530;13.194;2023-05-28T01:56:49;13.70;80.30
39875;DHT22;25547;52.530;13.194;2023-05-28T01:59:17;13.70;80.80
39875;DHT22;25547;52.530;13.194;2023-05-28T02:01:46;13.70;80.60
39875;DHT22;25547;52.530;13.194;2023-05-28T02:04:16;13.80;80.70
39875;DHT22;25547;52.530;13.194;2023-05-28T02:06:45;13.80;80.80
39875;DHT22;25547;52.530;13.194;2023-05-28T02:09:11;13.70;81.30
39875;DHT22;25547;52.530;13.194;2023-05-28T02:11:36;13.60;81.60
39875;DHT22;25547;52.530;13.194;2023-05-28T02:14:02;13.60;81.90
39875;DHT22;25547;52.530;13.194;2023-05-28T02:16:30;13.50;82.20
39875;DHT22;25547;52.530;13.194;2023-05-28T02:19:01;13.50;82.50
39875;DHT22;25547;52.530;13.194;2023-05-28T02:21:26;13.50;83.00
39875;DHT22;25547;52.530;13.194;2023-05-28T02:23:53;13.50;83.70
39875;DHT22;25547;52.530;13.194;2023-05-28T02:26:19;13.40;83.90
39875;DHT22;25547;52.530;13.194;2023-05-28T02:28:45;13.50;84.20
39875;DHT22;25547;52.530;13.194;2023-05-28T02:31:12;13.50;84.10
39875;DHT22;25547;52.530;13.194;2023-05-28T02:33:38;13.40;84.60
39875;DHT22;25547;52.530;13.194;2023-05-28T02:36:07;13.40;84.90
39875;DHT22;25547;52.530;13.194;2023-05-28T02:38:35;13.40;85.50
39875;DHT22;25547;52.530;13.194;2023-05-28T02:41:01;13.40;85.70
39875;DHT22;25547;52.530;13.194;2023-05-28T02:43:27;13.40;85.70
39875;DHT22;25547;52.530;13.194;2023-05-28T02:45:52;13.40;85.90
39875;DHT22;25547;52.530;13.194;2023-05-28T02:48:18;13.30;86.20
39875;DHT22;25547;52.530;13.194;2023-05-28T02:50:44;13.40;86.20
39875;DHT22;25547;52.530;13.194;2023-05-28T02:53:09;13.50;86.00
39875;DHT22;25547;52.530;13.194;2023-05-28T02:55:37;13.40;86.00
39875;DHT22;25547;52.530;13.194;2023-05-28T02:58:05;13.40;86.40
39875;DHT22;25547;52.530;13.194;2023-05-28T03:00:33;13.40;86.00
39875;DHT22;25547;52.530;13.194;2023-05-28T03:02:59;13.40;86.30
39875;DHT22;25547;52.530;13.194;2023-05-28T03:05:24;13.50;86.50
39875;DHT22;25547;52.530;13.194;2023-05-28T03:07:52;13.50;86.40
39875;DHT22;25547;52.530;13.194;2023-05-28T03:10:18;13.40;86.70
39875;DHT22;25547;52.530;13.194;2023-05-28T03:12:44;13.40;86.70
39875;DHT22;25547;52.530;13.194;2023-05-28T03:15:09;13.40;86.90
39875;DHT22;25547;52.530;13.194;2023-05-28T03:17:35;13.40;87.50
39875;DHT22;25547;52.530;13.194;2023-05-28T03:20:01;13.40;88.00
39875;DHT22;25547;52.530;13.194;2023-05-28T03:22:26;13.30;88.70
39875;DHT22;25547;52.530;13.194;2023-05-28T03:24:52;13.20;89.20
39875;DHT22;25547;52.530;13.194;2023-05-28T03:27:18;13.10;89.80
39875;DHT22;25547;52.530;13.194;2023-05-28T03:29:43;13.20;90.00
39875;DHT22;25547;52.530;13.194;2023-05-28T03:32:09;13.20;90.20
39875;DHT22;25547;52.530;13.194;2023-05-28T03:34:37;13.30;90.40
39875;DHT22;25547;52.530;13.194;2023-05-28T03:37:02;13.20;90.70
39875;DHT22;25547;52.530;13.194;2023-05-28T03:39:30;13.20;90.80
39875;DHT22;25547;52.530;13.194;2023-05-28T03:41:56;13.30;90.90
39875;DHT22;25547;52.530;13.194;2023-05-28T03:44:24;13.20;91.20
39875;DHT22;25547;52.530;13.194;2023-05-28T03:46:50;13.20;91.20
39875;DHT22;25547;52.530;13.194;2023-05-28T03:49:17;13.20;91.00
39875;DHT22;25547;52.530;13.194;2023-05-28T03:51:43;13.30;90.70
39875;DHT22;25547;52.530;13.194;2023-05-28T03:54:09;13.20;90.30
39875;DHT22;25547;52.530;13.194;2023-05-28T03:56:34;13.10;90.60
39875;DHT22;25547;52.530;13.194;2023-05-28T03:59:02;13.00;91.00
39875;DHT22;25547;52.530;13.194;2023-05-28T04:01:31;12.90;91.10
39875;DHT22;25547;52.530;13.194;2023-05-28T04:03:56;13.10;91.10
39875;DHT22;25547;52.530;13.194;2023-05-28T04:06:24;13.10;91.30
39875;DHT22;25547;52.530;13.194;2023-05-28T04:08:50;13.10;91.30
39875;DHT22;25547;52.530;13.194;2023-05-28T04:11:17;13.20;91.30
39875;DHT22;25547;52.530;13.194;2023-05-28T04:13:46;13.30;91.30
39875;DHT22;25547;52.530;13.194;2023-05-28T04:16:17;13.30;91.20
39875;DHT22;25547;52.530;13.194;2023-05-28T04:18:44;13.40;91.10
39875;DHT22;25547;52.530;13.194;2023-05-28T04:21:10;13.40;90.60
39875;DHT22;25547;52.530;13.194;2023-05-28T04:23:37;13.50;90.70
39875;DHT22;25547;52.530;13.194;2023-05-28T04:26:03;13.50;90.90
39875;DHT22;25547;52.530;13.194;2023-05-28T04:28:32;13.60;90.70
39875;DHT22;25547;52.530;13.194;2023-05-28T04:30:59;13.70;90.40
39875;DHT22;25547;52.530;13.194;2023-05-28T04:33:27;13.60;90.00
39875;DHT22;25547;52.530;13.194;2023-05-28T04:35:59;13.60;89.30
39875;DHT22;25547;52.530;13.194;2023-05-28T04:38:28;13.50;90.00
39875;DHT22;25547;52.530;13.194;2023-05-28T04:40:55;13.60;90.30
39875;DHT22;25547;52.530;13.194;2023-05-28T04:43:20;13.60;90.50
39875;DHT22;25547;52.530;13.194;2023-05-28T04:45:49;13.70;89.90
39875;DHT22;25547;52.530;13.194;2023-05-28T04:48:19;13.80;90.00
39875;DHT22;25547;52.530;13.194;2023-05-28T04:50:45;13.90;90.00
39875;DHT22;25547;52.530;13.194;2023-05-28T04:53:10;13.90;88.50
39875;DHT22;25547;52.530;13.194;2023-05-28T04:55:38;13.90;88.00
39875;DHT22;25547;52.530;13.194;2023-05-28T04:58:05;13.90;87.50
39875;DHT22;25547;52.530;13.194;2023-05-28T05:00:34;14.00;87.30
39875;DHT22;25547;52.530;13.194;2023-05-28T05:03:00;14.00;86.10
39875;DHT22;25547;52.530;13.194;2023-05-28T05:05:28;14.10;85.50
39875;DHT22;25547;52.530;13.194;2023-05-28T05:07:54;14.10;84.30
39875;DHT22;25547;52.530;13.194;2023-05-28T05:10:22;14.10;83.40
39875;DHT22;25547;52.530;13.194;2023-05-28T05:12:48;14.10;83.60
39875;DHT22;25547;52.530;13.194;2023-05-28T05:15:14;14.10;82.70
39875;DHT22;25547;52.530;13.194;2023-05-28T05:17:42;14.10;82.20
39875;DHT22;25547;52.530;13.194;2023-05-28T05:20:08;14.10;82.80
39875;DHT22;25547;52.530;13.194;2023-05-28T05:22:36;14.10;82.80
39875;DHT22;25547;52.530;13.194;2023-05-28T05:25:02;14.20;82.90
39875;DHT22;25547;52.530;13.194;2023-05-28T05:27:27;14.20;82.50
39875;DHT22;25547;52.530;13.194;2023-05-28T05:29:53;14.30;83.40
39875;DHT22;25547;52.530;13.194;2023-05-28T05:32:19;14.40;83.40
39875;DHT22;25547;52.530;13.194;2023-05-28T05:34:45;14.50;82.00
39875;DHT22;25547;52.530;13.194;2023-05-28T05:37:13;14.60;82.20
39875;DHT22;25547;52.530;13.194;2023-05-28T05:39:41;14.60;81.60
39875;DHT22;25547;52.530;13.194;2023-05-28T05:42:07;14.70;82.00
39875;DHT22;25547;52.530;13.194;2023-05-28T05:44:32;14.80;82.20
39875;DHT22;25547;52.530;13.194;2023-05-28T05:46:58;14.90;81.30
39875;DHT22;25547;52.530;13.194;2023-05-28T05:49:23;15.00;81.40
39875;DHT22;25547;52.530;13.194;2023-05-28T05:51:49;15.20;81.40
39875;DHT22;25547;52.530;13.194;2023-05-28T05:54:15;15.30;80.80
39875;DHT22;25547;52.530;13.194;2023-05-28T05:56:40;15.50;80.60
39875;DHT22;25547;52.530;13.194;2023-05-28T05:59:06;15.60;80.70
39875;DHT22;25547;52.530;13.194;2023-05-28T06:01:32;15.60;79.90
39875;DHT22;25547;52.530;13.194;2023-05-28T06:03:57;15.80;78.90
39875;DHT22;25547;52.530;13.194;2023-05-28T06:06:23;15.90;77.50
39875;DHT22;25547;52.530;13.194;2023-05-28T06:08:49;16.00;75.40
39875;DHT22;25547;52.530;13.194;2023-05-28T06:11:17;16.10;74.80
39875;DHT22;25547;52.530;13.194;2023-05-28T06:13:45;16.20;74.70
39875;DHT22;25547;52.530;13.194;2023-05-28T06:16:11;16.20;74.20
39875;DHT22;25547;52.530;13.194;2023-05-28T06:18:37;16.20;73.90
39875;DHT22;25547;52.530;13.194;2023-05-28T06:21:03;16.30;73.50
39875;DHT22;25547;52.530;13.194;2023-05-28T06:23:31;16.40;74.30
39875;DHT22;25547;52.530;13.194;2023-05-28T06:25:57;16.60;73.20
39875;DHT22;25547;52.530;13.194;2023-05-28T06:28:22;16.70;73.30
39875;DHT22;25547;52.530;13.194;2023-05-28T06:30:48;16.80;72.10
39875;DHT22;25547;52.530;13.194;2023-05-28T06:33:14;16.90;70.10
39875;DHT22;25547;52.530;13.194;2023-05-28T06:35:40;17.00;69.50
39875;DHT22;25547;52.530;13.194;2023-05-28T06:38:06;17.00;68.50
39875;DHT22;25547;52.530;13.194;2023-05-28T06:40:31;17.10;68.80
39875;DHT22;25547;52.530;13.194;2023-05-28T06:42:57;17.40;68.30
39875;DHT22;25547;52.530;13.194;2023-05-28T06:45:26;17.70;66.10
39875;DHT22;25547;52.530;13.194;2023-05-28T06:47:54;17.70;63.80
39875;DHT22;25547;52.530;13.194;2023-05-28T06:50:22;17.60;64.30
39875;DHT22;25547;52.530;13.194;2023-05-28T06:52:48;17.60;63.10
39875;DHT22;25547;52.530;13.194;2023-05-28T06:55:13;17.80;63.60
39875;DHT22;25547;52.530;13.194;2023-05-28T06:57:39;18.10;64.00
39875;DHT22;25547;52.530;13.194;2023-05-28T07:00:08;18.40;64.70
39875;DHT22;25547;52.530;13.194;2023-05-28T07:02:41;19.00;61.00
39875;DHT22;25547;52.530;13.194;2023-05-28T07:05:09;19.80;59.20
39875;DHT22;25547;52.530;13.194;2023-05-28T07:07:37;22.20;54.50
39875;DHT22;25547;52.530;13.194;2023-05-28T07:10:04;23.70;52.70
39875;DHT22;25547;52.530;13.194;2023-05-28T07:12:29;25.30;50.70
39875;DHT22;25547;52.530;13.194;2023-05-28T07:14:57;27.00;48.10
39875;DHT22;25547;52.530;13.194;2023-05-28T07:17:23;29.10;45.30
39875;DHT22;25547;52.530;13.194;2023-05-28T07:19:49;31.30;40.60
39875;DHT22;25547;52.530;13.194;2023-05-28T07:22:15;33.00;33.80
39875;DHT22;25547;52.530;13.194;2023-05-28T07:24:40;33.80;32.20
39875;DHT22;25547;52.530;13.194;2023-05-28T07:27:06;34.80;29.90
39875;DHT22;25547;52.530;13.194;2023-05-28T07:29:32;33.80;28.80
39875;DHT22;25547;52.530;13.194;2023-05-28T07:32:00;34.00;29.30
39875;DHT22;25547;52.530;13.194;2023-05-28T07:34:26;34.60;28.50
39875;DHT22;25547;52.530;13.194;2023-05-28T07:36:54;37.60;27.80
39875;DHT22;25547;52.530;13.194;2023-05-28T07:39:22;38.30;25.70
39875;DHT22;25547;52.530;13.194;2023-05-28T07:41:50;38.90;25.30
39875;DHT22;25547;52.530;13.194;2023-05-28T07:44:16;39.80;24.30
39875;DHT22;25547;52.530;13.194;2023-05-28T07:46:44;41.40;23.90
39875;DHT22;25547;52.530;13.194;2023-05-28T07:49:10;41.80;23.00
39875;DHT22;25547;52.530;13.194;2023-05-28T07:51:38;43.70;22.80
39875;DHT22;25547;52.530;13.194;2023-05-28T07:54:06;42.80;21.50
39875;DHT22;25547;52.530;13.194;2023-05-28T07:56:32;41.60;21.20
39875;DHT22;25547;52.530;13.194;2023-05-28T07:58:57;39.10;23.50
39875;DHT22;25547;52.530;13.194;2023-05-28T08:01:27;37.30;23.50
39875;DHT22;25547;52.530;13.194;2023-05-28T08:03:53;36.20;24.20
39875;DHT22;25547;52.530;13.194;2023-05-28T08:06:21;36.30;24.60
39875;DHT22;25547;52.530;13.194;2023-05-28T08:08:46;37.00;25.70
39875;DHT22;25547;52.530;13.194;2023-05-28T08:11:12;39.10;24.60
39875;DHT22;25547;52.530;13.194;2023-05-28T08:13:43;36.70;23.60
39875;DHT22;25547;52.530;13.194;2023-05-28T08:16:12;37.40;23.70
39875;DHT22;25547;52.530;13.194;2023-05-28T08:18:40;36.00;24.20
39875;DHT22;25547;52.530;13.194;2023-05-28T08:21:06;34.90;24.80
39875;DHT22;25547;52.530;13.194;2023-05-28T08:23:34;35.70;25.60
39875;DHT22;25547;52.530;13.194;2023-05-28T08:26:03;37.30;25.60
39875;DHT22;25547;52.530;13.194;2023-05-28T08:28:29;37.10;24.90
39875;DHT22;25547;52.530;13.194;2023-05-28T08:30:55;35.10;25.50
39875;DHT22;25547;52.530;13.194;2023-05-28T08:33:24;31.60;28.60
39875;DHT22;25547;52.530;13.194;2023-05-28T08:35:52;29.60;29.70
39875;DHT22;25547;52.530;13.194;2023-05-28T08:38:18;27.10;32.70
39875;DHT22;25547;52.530;13.194;2023-05-28T08:40:49;26.20;35.70
39875;DHT22;25547;52.530;13.194;2023-05-28T08:43:15;26.10;36.90
39875;DHT22;25547;52.530;13.194;2023-05-28T08:45:41;25.20;36.50
39875;DHT22;25547;52.530;13.194;2023-05-28T08:48:07;25.10;36.90
39875;DHT22;25547;52.530;13.194;2023-05-28T08:50:37;24.90;38.30
39875;DHT22;25547;52.530;13.194;2023-05-28T08:53:05;24.50;39.20
39875;DHT22;25547;52.530;13.194;2023-05-28T08:55:37;24.40;39.20
39875;DHT22;25547;52.530;13.194;2023-05-28T08:58:05;23.80;38.40
39875;DHT22;25547;52.530;13.194;2023-05-28T09:00:31;23.70;39.30
39875;DHT22;25547;52.530;13.194;2023-05-28T09:02:57;23.00;40.10
39875;DHT22;25547;52.530;13.194;2023-05-28T09:05:23;22.40;40.60
39875;DHT22;25547;52.530;13.194;2023-05-28T09:07:48;22.60;42.10
39875;DHT22;25547;52.530;13.194;2023-05-28T09:10:14;22.60;44.20
39875;DHT22;25547;52.530;13.194;2023-05-28T09:12:57;22.50;43.50
39875;DHT22;25547;52.530;13.194;2023-05-28T09:15:25;22.50;44.00
39875;DHT22;25547;52.530;13.194;2023-05-28T09:17:50;22.60;41.80
39875;DHT22;25547;52.530;13.194;2023-05-28T09:20:16;22.70;41.80
39875;DHT22;25547;52.530;13.194;2023-05-28T09:22:43;22.60;42.80
39875;DHT22;25547;52.530;13.194;2023-05-28T09:25:11;22.50;42.40
39875;DHT22;25547;52.530;13.194;2023-05-28T09:27:37;22.50;44.00
39875;DHT22;25547;52.530;13.194;2023-05-28T09:30:09;22.30;41.00
39875;DHT22;25547;52.530;13.194;2023-05-28T09:32:37;21.90;41.60
39875;DHT22;25547;52.530;13.194;2023-05-28T09:35:07;22.00;43.80
39875;DHT22;25547;52.530;13.194;2023-05-28T09:37:36;22.00;42.30
39875;DHT22;25547;52.530;13.194;2023-05-28T09:40:06;22.00;41.50
39875;DHT22;25547;52.530;13.194;2023-05-28T09:42:41;22.10;40.90
39875;DHT22;25547;52.530;13.194;2023-05-28T09:45:11;21.40;41.20
39875;DHT22;25547;52.530;13.194;2023-05-28T09:47:44;21.00;42.00
39875;DHT22;25547;52.530;13.194;2023-05-28T09:50:10;20.90;42.10
39875;DHT22;25547;52.530;13.194;2023-05-28T09:52:38;20.70;41.70
39875;DHT22;25547;52.530;13.194;2023-05-28T09:55:07;20.60;42.20
39875;DHT22;25547;52.530;13.194;2023-05-28T09:57:33;21.00;42.80
39875;DHT22;25547;52.530;13.194;2023-05-28T10:00:02;21.00;41.80
39875;DHT22;25547;52.530;13.194;2023-05-28T10:05:21;21.10;42.20
39875;DHT22;25547;52.530;13.194;2023-05-28T10:07:52;21.40;43.10
39875;DHT22;25547;52.530;13.194;2023-05-28T10:10:20;21.60;42.10
39875;DHT22;25547;52.530;13.194;2023-05-28T10:12:47;21.60;41.60
39875;DHT22;25547;52.530;13.194;2023-05-28T10:15:16;21.60;41.60
39875;DHT22;25547;52.530;13.194;2023-05-28T10:17:45;21.50;41.60
39875;DHT22;25547;52.530;13.194;2023-05-28T10:20:13;21.60;42.20
39875;DHT22;25547;52.530;13.194;2023-05-28T10:22:40;21.50;42.70
39875;DHT22;25547;52.530;13.194;2023-05-28T10:25:07;21.70;42.10
39875;DHT22;25547;52.530;13.194;2023-05-28T10:27:36;21.60;41.60
39875;DHT22;25547;52.530;13.194;2023-05-28T10:30:04;21.60;41.40
39875;DHT22;25547;52.530;13.194;2023-05-28T10:32:30;21.80;42.60
39875;DHT22;25547;52.530;13.194;2023-05-28T10:35:03;21.70;41.60
39875;DHT22;25547;52.530;13.194;2023-05-28T10:37:31;21.30;41.00
39875;DHT22;25547;52.530;13.194;2023-05-28T10:39:59;21.00;41.10
39875;DHT22;25547;52.530;13.194;2023-05-28T10:42:27;21.20;41.40
39875;DHT22;25547;52.530;13.194;2023-05-28T10:47:32;21.00;44.00
39875;DHT22;25547;52.530;13.194;2023-05-28T10:50:19;20.90;43.70
39875;DHT22;25547;52.530;13.194;2023-05-28T10:55:50;21.00;44.00
39875;DHT22;25547;52.530;13.194;2023-05-28T11:00:48;21.10;42.90
39875;DHT22;25547;52.530;13.194;2023-05-28T11:03:16;21.20;42.40
39875;DHT22;25547;52.530;13.194;2023-05-28T11:05:44;21.30;41.80
39875;DHT22;25547;52.530;13.194;2023-05-28T11:08:12;21.30;41.00
39875;DHT22;25547;52.530;13.194;2023-05-28T11:10:40;21.30;41.30
39875;DHT22;25547;52.530;13.194;2023-05-28T11:13:08;21.30;41.30
39875;DHT22;25547;52.530;13.194;2023-05-28T11:15:33;21.30;41.30
39875;DHT22;25547;52.530;13.194;2023-05-28T11:18:01;21.60;41.20
39875;DHT22;25547;52.530;13.194;2023-05-28T11:20:29;21.60;40.80
39875;DHT22;25547;52.530;13.194;2023-05-28T11:22:55;21.40;42.80
39875;DHT22;25547;52.530;13.194;2023-05-28T11:25:21;21.30;43.10
39875;DHT22;25547;52.530;13.194;2023-05-28T11:27:52;21.40;41.30
39875;DHT22;25547;52.530;13.194;2023-05-28T11:30:19;21.40;41.00
39875;DHT22;25547;52.530;13.194;2023-05-28T11:32:48;21.40;41.20
39875;DHT22;25547;52.530;13.194;2023-05-28T11:35:17;21.40;40.40
39875;DHT22;25547;52.530;13.194;2023-05-28T11:37:44;21.30;41.30
39875;DHT22;25547;52.530;13.194;2023-05-28T11:40:12;21.40;40.70
39875;DHT22;25547;52.530;13.194;2023-05-28T11:42:39;21.60;40.50
39875;DHT22;25547;52.530;13.194;2023-05-28T11:45:07;21.50;41.60
39875;DHT22;25547;52.530;13.194;2023-05-28T11:47:38;21.50;41.00
39875;DHT22;25547;52.530;13.194;2023-05-28T11:50:12;21.20;42.50
39875;DHT22;25547;52.530;13.194;2023-05-28T11:52:41;21.00;43.20
39875;DHT22;25547;52.530;13.194;2023-05-28T11:55:10;21.00;43.40
39875;DHT22;25547;52.530;13.194;2023-05-28T11:57:35;20.90;43.40
39875;DHT22;25547;52.530;13.194;2023-05-28T12:00:10;20.90;43.20
39875;DHT22;25547;52.530;13.194;2023-05-28T12:05:12;21.30;41.10
39875;DHT22;25547;52.530;13.194;2023-05-28T12:07:47;21.10;43.00
39875;DHT22;25547;52.530;13.194;2023-05-28T12:10:15;21.10;41.70
39875;DHT22;25547;52.530;13.194;2023-05-28T12:13:05;21.00;43.60
39875;DHT22;25547;52.530;13.194;2023-05-28T12:15:32;20.80;43.50
39875;DHT22;25547;52.530;13.194;2023-05-28T12:18:00;20.80;42.60
39875;DHT22;25547;52.530;13.194;2023-05-28T12:23:04;20.90;42.20
39875;DHT22;25547;52.530;13.194;2023-05-28T12:25:50;20.70;43.20
39875;DHT22;25547;52.530;13.194;2023-05-28T12:28:21;20.90;40.80
39875;DHT22;25547;52.530;13.194;2023-05-28T12:30:51;21.10;40.10
39875;DHT22;25547;52.530;13.194;2023-05-28T12:33:19;21.30;40.40
39875;DHT22;25547;52.530;13.194;2023-05-28T12:35:45;21.50;39.60
39875;DHT22;25547;52.530;13.194;2023-05-28T12:38:12;21.60;39.50
39875;DHT22;25547;52.530;13.194;2023-05-28T12:40:37;21.50;39.60
39875;DHT22;25547;52.530;13.194;2023-05-28T12:43:03;21.50;39.70
39875;DHT22;25547;52.530;13.194;2023-05-28T12:45:29;21.40;39.80
39875;DHT22;25547;52.530;13.194;2023-05-28T12:47:55;21.40;39.70
39875;DHT22;25547;52.530;13.194;2023-05-28T12:50:21;21.20;41.50
39875;DHT22;25547;52.530;13.194;2023-05-28T12:52:49;21.30;40.90
39875;DHT22;25547;52.530;13.194;2023-05-28T12:55:15;21.40;40.80
39875;DHT22;25547;52.530;13.194;2023-05-28T12:57:41;21.40;39.90
39875;DHT22;25547;52.530;13.194;2023-05-28T13:00:09;21.50;40.10
39875;DHT22;25547;52.530;13.194;2023-05-28T13:02:36;21.60;39.70
39875;DHT22;25547;52.530;13.194;2023-05-28T13:05:02;21.50;40.60
39875;DHT22;25547;52.530;13.194;2023-05-28T13:07:28;21.60;41.20
39875;DHT22;25547;52.530;13.194;2023-05-28T13:09:53;21.60;41.20
39875;DHT22;25547;52.530;13.194;2023-05-28T13:12:19;21.60;40.70
39875;DHT22;25547;52.530;13.194;2023-05-28T13:14:45;21.70;40.80
39875;DHT22;25547;52.530;13.194;2023-05-28T13:17:10;21.90;40.90
39875;DHT22;25547;52.530;13.194;2023-05-28T13:19:36;21.80;41.30
39875;DHT22;25547;52.530;13.194;2023-05-28T13:22:04;21.80;41.60
39875;DHT22;25547;52.530;13.194;2023-05-28T13:24:30;21.40;43.00
39875;DHT22;25547;52.530;13.194;2023-05-28T13:26:55;21.30;43.60
39875;DHT22;25547;52.530;13.194;2023-05-28T13:29:21;21.10;44.00
39875;DHT22;25547;52.530;13.194;2023-05-28T13:31:49;21.10;44.20
39875;DHT22;25547;52.530;13.194;2023-05-28T13:34:17;21.20;43.90
39875;DHT22;25547;52.530;13.194;2023-05-28T13:36:45;21.40;42.50
39875;DHT22;25547;52.530;13.194;2023-05-28T13:39:11;21.60;42.30
39875;DHT22;25547;52.530;13.194;2023-05-28T13:41:39;21.80;41.60
39875;DHT22;25547;52.530;13.194;2023-05-28T13:44:05;22.00;41.90
39875;DHT22;25547;52.530;13.194;2023-05-28T13:46:31;21.90;41.20
39875;DHT22;25547;52.530;13.194;2023-05-28T13:48:57;21.80;41.60
39875;DHT22;25547;52.530;13.194;2023-05-28T13:51:25;21.60;42.70
39875;DHT22;25547;52.530;13.194;2023-05-28T13:53:51;21.80;42.20
39875;DHT22;25547;52.530;13.194;2023-05-28T13:56:19;22.00;41.90
39875;DHT22;25547;52.530;13.194;2023-05-28T13:58:45;21.90;41.60
39875;DHT22;25547;52.530;13.194;2023-05-28T14:01:11;22.00;42.20
39875;DHT22;25547;52.530;13.194;2023-05-28T14:03:36;21.90;42.90
39875;DHT22;25547;52.530;13.194;2023-05-28T14:06:02;21.70;42.80
39875;DHT22;25547;52.530;13.194;2023-05-28T14:08:32;21.60;43.50
39875;DHT22;25547;52.530;13.194;2023-05-28T14:10:58;21.40;44.60
39875;DHT22;25547;52.530;13.194;2023-05-28T14:13:24;21.50;44.50
39875;DHT22;25547;52.530;13.194;2023-05-28T14:15:55;21.30;45.10
39875;DHT22;25547;52.530;13.194;2023-05-28T14:18:21;21.40;44.90
39875;DHT22;25547;52.530;13.194;2023-05-28T14:20:49;21.40;44.00
39875;DHT22;25547;52.530;13.194;2023-05-28T14:23:15;21.40;44.60
39875;DHT22;25547;52.530;13.194;2023-05-28T14:25:41;21.60;42.90
39875;DHT22;25547;52.530;13.194;2023-05-28T14:28:09;21.90;42.60
39875;DHT22;25547;52.530;13.194;2023-05-28T14:30:35;22.10;42.20
39875;DHT22;25547;52.530;13.194;2023-05-28T14:33:00;22.00;42.90
39875;DHT22;25547;52.530;13.194;2023-05-28T14:35:26;22.00;42.60
39875;DHT22;25547;52.530;13.194;2023-05-28T14:37:52;22.10;42.90
39875;DHT22;25547;52.530;13.194;2023-05-28T14:40:18;22.20;42.80
39875;DHT22;25547;52.530;13.194;2023-05-28T14:42:48;22.20;42.80
39875;DHT22;25547;52.530;13.194;2023-05-28T14:45:14;22.10;42.60
39875;DHT22;25547;52.530;13.194;2023-05-28T14:47:39;22.20;42.80
39875;DHT22;25547;52.530;13.194;2023-05-28T14:50:08;22.10;43.50
39875;DHT22;25547;52.530;13.194;2023-05-28T14:52:34;22.00;43.40
39875;DHT22;25547;52.530;13.194;2023-05-28T14:55:02;22.00;43.20
39875;DHT22;25547;52.530;13.194;2023-05-28T14:57:30;22.10;43.40
39875;DHT22;25547;52.530;13.194;2023-05-28T15:00:03;22.00;43.50
39875;DHT22;25547;52.530;13.194;2023-05-28T15:02:35;22.00;43.40
39875;DHT22;25547;52.530;13.194;2023-05-28T15:05:00;21.90;43.50
39875;DHT22;25547;52.530;13.194;2023-05-28T15:07:26;21.90;43.50
39875;DHT22;25547;52.530;13.194;2023-05-28T15:09:52;22.00;43.40
39875;DHT22;25547;52.530;13.194;2023-05-28T15:12:17;21.90;43.50
39875;DHT22;25547;52.530;13.194;2023-05-28T15:14:43;21.70;43.90
39875;DHT22;25547;52.530;13.194;2023-05-28T15:17:09;21.70;45.10
39875;DHT22;25547;52.530;13.194;2023-05-28T15:19:35;21.50;45.00
39875;DHT22;25547;52.530;13.194;2023-05-28T15:22:00;21.60;45.20
39875;DHT22;25547;52.530;13.194;2023-05-28T15:24:26;21.70;43.80
39875;DHT22;25547;52.530;13.194;2023-05-28T15:26:53;21.60;45.20
39875;DHT22;25547;52.530;13.194;2023-05-28T15:29:21;21.70;44.00
39875;DHT22;25547;52.530;13.194;2023-05-28T15:31:50;21.70;43.70